Tiempo atmosférico en la estación meteorológica de Palencia, Palencia (736 m.)



Fecha
DESCASC
Temp. máxima en grados centígrados (hora)
DESCASC
Temp. mínima en grados centígrados (hora)
DESCASC
Temp. media en grados centígrados
DESCASC
Racha de viento máxima en m/sg (hora)
DESCASC
Velocidad máxima media en intervalos de 10 minutos(hora)
DESCASC
Precipitaciones diarias en mm
DESCASC
Precipitaciones de 00:00 a 06:00 en mm
DESCASC
Precipitaciones de 06:00 a 12:00 en mm
DESCASC
Precipitaciones de 12:00 a 18:00 en mm
DESCASC
Precipitaciones de 18:00 a 24:00 en mm
DESCASC
08-12-2019 8.4 (18:20) 2 (03:00) 5.2 5 (04:10) 2.5 (08:30) 1.6 0 0 1.6 0
07-12-2019 6.7 (16:10) 0.1 (07:30) 3.4 3.61 (03:10) 2.5 (23:59) 0 0 0 0 0
06-12-2019 10.9 (15:50) -1.7 (08:40) 4.6 3.33 (12:20) 2.22 (12:20) 0 0 0 0 0
05-12-2019 10.2 (15:00) 3.6 (00:00) 6.9 10.83 (11:40) 6.39 (11:40) 0 0 0 0 0
04-12-2019 9.7 (16:40) -1.7 (05:30) 4 8.61 (21:30) 3.33 (15:20) 0 0 0 0 0
03-12-2019 6.2 (13:20) -1.4 (-00:0) 2.4 11.11 (12:00) 5 (12:10) 0 0 0 0 0
02-12-2019 8.2 (14:10) 2.7 (00:00) 5.4 10.83 (16:20) 6.39 (13:50) 0 0 0 0 0
01-12-2019 7 (16:50) 4.8 (00:00) 5.9 7.22 (23:59) 3.89 (00:40) 6 1.4 3.4 1 0.2
30-11-2019 13.7 (13:00) 4.7 (00:00) 9.2 13.89 (14:50) 8.89 (14:00) 7.6 2.2 0.4 5 0
29-11-2019 14.1 (15:00) 7.3 (00:00) 10.7 13.06 (00:20) 9.17 (00:30) 1.2 0 0 0 1.2
28-11-2019 12.2 (15:50) 8.7 (00:50) 10.4 12.78 (00:30) 8.61 (00:30) 2.4 0 0 0.4 2
27-11-2019 10.5 (12:10) 7.3 (00:00) 8.9 15 (18:10) 8.33 (23:20) 0.2 0 0 0 0.2
26-11-2019 15.4 (14:30) 7.5 (00:00) 11.4 16.39 (21:00) 9.17 (21:20) 1.6 0.2 0.4 0.4 0.6
25-11-2019 13.8 (13:40) 7.3 (23:20) 10.6 11.94 (10:50) 6.94 (12:00) 0 0 0 0 0
24-11-2019 9 (15:20) 3.4 (00:00) 6.2 11.67 (00:50) 7.78 (02:30) 0.4 0 0 0 0.4
23-11-2019 10.5 (14:50) 4.3 (00:00) 7.4 17.78 (14:10) 10.83 (01:40) 0 0 0 0 0
22-11-2019 12.2 (14:50) 4.9 (00:00) 8.5 14.44 (16:50) 8.06 (23:40) 8.6 0.6 4.6 3.2 0.2
21-11-2019 10.7 (15:20) 4 (00:00) 7.3 9.17 (13:50) 5.28 (14:40) 0 0 0 0 0
20-11-2019 6.8 (14:10) 3.4 (00:00) 5.1 7.22 (15:10) 3.89 (15:30) 4 0 0.8 3 0.2
19-11-2019 7.9 (14:10) -3.6 (-00:0) 2.2 5 (15:10) 3.33 (15:00) 0 0 0 0 0
18-11-2019 10.5 (16:00) -2 (-00:0) 4.3 6.39 (00:30) 3.61 (00:40) 0 0 0 0 0
17-11-2019 10.5 (15:10) 3.2 (00:00) 6.9 12.22 (12:10) 7.22 (18:40) 1.2 0 1.2 0 0
16-11-2019 8.3 (16:00) -2.8 (-00:0) 2.8 10 (14:00) 6.39 (14:00) 0 0 0 0 0
15-11-2019 7.9 (15:40) 1.2 (00:00) 4.6 14.72 (09:10) 8.06 (13:00) 0 0 0 0 0
14-11-2019 7.7 (02:20) 1.9 (00:00) 4.8 16.67 (13:10) 10 (04:20) 7.2 2.4 0 4.6 0.2
13-11-2019 13.7 (15:20) 7.1 (00:00) 10.4 16.11 (00:10) 10.28 (01:50) 2.6 2.4 0.2 0 0
12-11-2019 10.5 (13:20) 1.3 (00:00) 5.9 13.89 (23:50) 8.89 (23:59) 2.2 0 0 0.2 2
11-11-2019 12.8 (14:50) 1.1 (23:50) 7 6.67 (12:10) 4.17 (12:20) 0 0 0 0 0

Gráficas

Temp. máximas Temp. mínimas Temp. medias Precipitaciones Rachas de viento máximas Velocidades máximas media en intervalos de 10 minutos

Datos horarios

Fecha y hora oficial Temperatura (ºC) Velocidad del viento (km/h) Dirección del viento Racha (km/h) Dirección de racha Precipitación (mm) Presión (hPa) Tendencia (hPa) Humedad (%)
2019-12-10 23:00:00 0.7 0 Calma 5 Sudoeste 0 -- -- 98
2019-12-10 22:00:00 1.7 0 Calma 4 Sudoeste 0 -- -- 98
2019-12-10 21:00:00 2.5 0 Calma 5 Noroeste 0 -- -- 98
2019-12-10 20:00:00 3.3 4 Norte 7 Noroeste 0 -- -- 97
2019-12-10 19:00:00 4.3 5 Sudeste 7 Sudeste 0 -- -- 97
2019-12-10 18:00:00 5 0 Calma 4 Noroeste 0 -- -- 97
2019-12-10 17:00:00 5.3 4 Noroeste 12 Noroeste 0 -- -- 98
2019-12-10 16:00:00 5.6 5 Norte 10 Norte 0 -- -- 98
2019-12-10 15:00:00 5.5 2 Este 12 Sudeste 0 -- -- 100
2019-12-10 14:00:00 3.8 6 Sudeste 11 Sudeste 0 -- -- 100
2019-12-10 13:00:00 2.4 8 Sudeste 12 Sudeste 0 -- -- 100
2019-12-10 12:00:00 1 5 Sudeste 9 Sudeste 0 -- -- 100
2019-12-10 11:00:00 0 2 Este 6 Sudeste 0 -- -- 100
2019-12-10 10:00:00 -0.8 3 Noroeste 6 Noroeste 0 -- -- 100
2019-12-10 09:00:00 -0.8 3 Sudoeste 6 Oeste 0 -- -- 100
2019-12-10 08:00:00 -0.3 3 Sudeste 6 Sudeste 0 -- -- 100
2019-12-10 07:00:00 -0.1 2 Este 4 Sudeste 0 -- -- 100
2019-12-10 06:00:00 -0.5 0 Calma 3 Este 0 -- -- 99
2019-12-10 05:00:00 -0.4 0 Calma 3 Sudoeste 0 -- -- 99
2019-12-10 04:00:00 -0.4 0 Calma 4 Este 0 -- -- 99
2019-12-10 03:00:00 -0.7 0 Calma 3 Sudeste 0 -- -- 98
2019-12-10 02:00:00 -0.2 0 Calma 3 Sudeste 0 -- -- 99
2019-12-10 01:00:00 -0.6 2 Sur 4 Sudoeste 0 -- -- 98
2019-12-10 00:00:00 -0.4 0 Calma 6 Oeste 0 -- -- 97
2019-12-09 23:00:00 0.2 3 Oeste 8 Oeste 0 -- -- 97
2019-12-09 22:00:00 0.5 0 Calma 5 Sudeste 0 -- -- 95
2019-12-09 21:00:00 1.7 0 Calma 4 Noroeste 0 -- -- 94
2019-12-09 20:00:00 3 3 Sudoeste 10 Sudoeste 0 -- -- 94
2019-12-09 19:00:00 3.9 4 Sudoeste 8 Oeste 0 -- -- 92
2019-12-09 18:00:00 6 5 Sudoeste 6 Sudoeste 0 -- -- 87
2019-12-09 17:00:00 8.3 0 Calma 5 Noroeste 0 -- -- 84
2019-12-09 16:00:00 8.8 4 Oeste 10 Noroeste 0 -- -- 82
2019-12-09 15:00:00 9 4 Noroeste 16 Oeste 0 -- -- 79
2019-12-09 14:00:00 7.9 8 Oeste 21 Noroeste 0 -- -- 84
2019-12-09 13:00:00 7 8 Oeste 15 Noroeste 0 -- -- 87
2019-12-09 12:00:00 6.1 4 Norte 15 Oeste 0 -- -- 91
2019-12-09 11:00:00 4.9 5 Noroeste 12 Noroeste 0 -- -- 97
2019-12-09 10:00:00 3.4 0 Calma 5 Sur 0 -- -- 99
2019-12-09 09:00:00 3.2 2 Sur 9 Sudeste 0 -- -- 98
2019-12-09 08:00:00 3.8 2 Este 13 Sudeste 0 -- -- 99
2019-12-09 07:00:00 4.3 5 Sudeste 13 Oeste 0 -- -- 99
2019-12-09 06:00:00 4 3 Sudeste 13 Sur 0 -- -- 100
2019-12-09 05:00:00 3.9 6 Sudoeste 12 Oeste 0 -- -- 99
2019-12-09 04:00:00 4.3 5 Sur 19 Oeste 0 -- -- 99
2019-12-09 03:00:00 4.6 4 Noroeste 20 Oeste 0 -- -- 99
2019-12-09 02:00:00 5.4 8 Oeste 15 Oeste 0 -- -- 100
2019-12-09 01:00:00 6.3 5 Oeste 14 Oeste 0 -- -- 100
2019-12-09 00:00:00 6.7 5 Noroeste 8 Norte 0 -- -- 100
2019-12-08 23:00:00 6.6 5 Noroeste 12 Noroeste 0 -- -- 100
2019-12-08 22:00:00 7 7 Oeste 16 Noroeste 0 -- -- 100
2019-12-08 21:00:00 7.5 9 Noroeste 13 Noroeste 0 -- -- 100
2019-12-08 20:00:00 7.9 6 Norte 13 Noroeste 0 -- -- 100
2019-12-08 19:00:00 8.4 4 Noroeste 13 Oeste 0 -- -- 100
2019-12-08 18:00:00 8.3 0 Calma 8 Oeste 0.2 -- -- 100
2019-12-08 17:00:00 8.1 4 Noroeste 18 Oeste 0 -- -- 100
2019-12-08 16:00:00 7.4 2 Oeste 9 Oeste 0 -- -- 100
2019-12-08 15:00:00 7.3 4 Sudeste 10 Sudoeste 0.2 -- -- 100
2019-12-08 14:00:00 6.9 5 Sudeste 10 Sudeste 0.6 -- -- 100
2019-12-08 13:00:00 6 5 Sudeste 8 Sudeste 0.6 -- -- 100
2019-12-08 12:00:00 5.5 3 Sudeste 14 Sudeste 0 -- -- 100
2019-12-08 11:00:00 4.6 7 Sudeste 11 Sudeste 0 -- -- 100
2019-12-08 10:00:00 3.3 6 Sudeste 12 Sudeste 0 -- -- 100
2019-12-08 09:00:00 2.8 6 Sudeste 13 Sudeste 0 -- -- 100
2019-12-08 08:00:00 2.5 6 Sudeste 10 Sudeste 0 -- -- 100
2019-12-08 07:00:00 2.1 0 Calma 6 Norte 0 -- -- 100
2019-12-08 06:00:00 2.1 4 Oeste 9 Oeste 0 -- -- 100
2019-12-08 05:00:00 2.3 0 Calma 18 Sudeste 0 -- -- 100
2019-12-08 04:00:00 2.2 5 Sur 9 Sudeste 0 -- -- 100
2019-12-08 03:00:00 2 4 Sudeste 9 Sudeste -- -- -- 100
2019-12-08 02:00:00 2.1 3 Sudeste 6 Sudoeste 0 -- -- 100
2019-12-08 01:00:00 2.3 0 Calma 10 Sudeste 0 -- -- 100
2019-12-08 00:00:00 2.5 9 Sudeste 11 Sudeste 0 -- -- 99
2019-12-07 23:00:00 2.6 3 Sur 5 Sudeste 0 -- -- 99
2019-12-07 22:00:00 2.7 0 Calma 10 Noroeste 0 -- -- 99
2019-12-07 21:00:00 2.8 6 Norte 12 Norte 0 -- -- 99
2019-12-07 20:00:00 2.3 2 Norte 4 Noroeste 0 -- -- 97
2019-12-07 19:00:00 3.8 0 Calma 6 Noroeste 0 -- -- 96
2019-12-07 18:00:00 5.1 2 Noroeste 4 Sudoeste 0 -- -- 94
2019-12-07 17:00:00 6.5 0 Calma 4 Noroeste 0 -- -- 97
2019-12-07 16:00:00 6.6 2 Norte 9 Noroeste 0 -- -- 98
2019-12-07 15:00:00 6.1 3 Norte 6 Noroeste 0 -- -- 99
2019-12-07 14:00:00 5.6 3 Sudeste 8 Sudeste 0 -- -- 100
2019-12-07 13:00:00 4.6 5 Sudeste 9 Sudeste 0 -- -- 100
2019-12-07 12:00:00 3.6 5 Sudeste 11 Sudeste 0 -- -- 100
2019-12-07 11:00:00 2.9 6 Sudeste 8 Sudeste 0 -- -- 100
2019-12-07 10:00:00 1.9 7 Sudeste 9 Sudeste 0 -- -- 99
2019-12-07 09:00:00 0.9 2 Sur 7 Sudeste 0 -- -- 99
2019-12-07 08:00:00 0.3 0 Calma 12 Sudeste 0 -- -- 98
2019-12-07 07:00:00 0.5 4 Sudeste 13 Sur 0 -- -- 97
2019-12-07 06:00:00 0.8 5 Sudeste 8 Sur 0 -- -- 96
2019-12-07 05:00:00 1.5 2 Sudeste 6 Sudeste 0 -- -- 96
2019-12-07 04:00:00 2.5 3 Sudeste 13 Sudeste 0 -- -- 97
2019-12-07 03:00:00 2.6 6 Sudeste 10 Sudeste 0 -- -- 98
2019-12-07 02:00:00 1.5 0 Calma 3 Sur 0 -- -- 97
2019-12-07 01:00:00 0.8 2 Sudoeste 5 Sudeste 0 -- -- 95
2019-12-07 00:00:00 1.2 0 Calma 4 Sudeste 0 -- -- 95
2019-12-06 23:00:00 1.7 3 Noroeste 5 Sudoeste 0 -- -- 94
2019-12-06 22:00:00 2.7 0 Calma 4 Sur 0 -- -- 93
2019-12-06 21:00:00 3.1 2 Sudoeste 6 Sur 0 -- -- 95
2019-12-06 20:00:00 3.5 0 Calma 7 Sudoeste 0 -- -- 91
2019-12-06 19:00:00 4.9 5 Sudoeste 7 Oeste 0 -- -- 86
2019-12-06 18:00:00 8 0 Calma 5 Oeste 0 -- -- 81
2019-12-06 17:00:00 9.5 3 Oeste 9 Noroeste 0 -- -- 79
2019-12-06 16:00:00 10.9 4 Oeste 8 Oeste 0 -- -- 72
2019-12-06 15:00:00 10 4 Noroeste 12 Noroeste 0 -- -- 76
2019-12-06 14:00:00 9.7 4 Noroeste 10 Norte 0 -- -- 77
2019-12-06 13:00:00 8.6 2 Sudeste 12 Sudeste 0 -- -- 79
2019-12-06 12:00:00 7 5 Sudeste 10 Sudeste 0 -- -- 85
2019-12-06 11:00:00 4 2 Noroeste 5 Norte 0 -- -- 96
2019-12-06 10:00:00 1.1 0 Calma 4 Sudeste 0 -- -- 99
2019-12-06 09:00:00 -1.6 0 Calma 5 Sudeste 0 -- -- 97
2019-12-06 08:00:00 -1.6 3 Sur 6 Sudeste 0 -- -- 95
2019-12-06 07:00:00 -1 0 Calma 6 Noroeste 0 -- -- 96
2019-12-06 06:00:00 -0.8 3 Noroeste 6 Sudoeste 0 -- -- 95
2019-12-06 05:00:00 -0.2 2 Sudoeste 8 Sudoeste 0 -- -- 96
2019-12-06 04:00:00 0.2 3 Noroeste 6 Noroeste 0 -- -- 96
2019-12-06 03:00:00 0.5 3 Oeste 6 Oeste 0 -- -- 93
2019-12-06 02:00:00 1.3 5 Noroeste 7 Oeste 0 -- -- 93
2019-12-06 01:00:00 2.7 4 Oeste 10 Norte 0 -- -- 92
2019-12-06 00:00:00 3.6 7 Noroeste 14 Norte 0 -- -- 91
2019-12-05 23:00:00 4.8 4 Nordeste 10 Este 0 -- -- 89
2019-12-05 22:00:00 5.2 3 Nordeste 13 Nordeste 0 -- -- 87
2019-12-05 21:00:00 5.6 4 Nordeste 11 Norte 0 -- -- 85
2019-12-05 20:00:00 5.9 2 Norte 19 Norte 0 -- -- 83
2019-12-05 19:00:00 6.9 6 Nordeste 15 Nordeste 0 -- -- 79
2019-12-05 18:00:00 8.1 8 Nordeste 23 Este 0 -- -- 75
2019-12-05 17:00:00 9.3 13 Nordeste 27 Este 0 -- -- 72
2019-12-05 16:00:00 9.9 14 Nordeste 37 Nordeste 0 -- -- 70
2019-12-05 15:00:00 10.2 19 Nordeste 35 Nordeste 0 -- -- 69
2019-12-05 14:00:00 9.9 17 Nordeste 32 Este 0 -- -- 69
2019-12-05 13:00:00 9.3 15 Nordeste 39 Este 0 -- -- 74
2019-12-05 12:00:00 7.9 17 Nordeste 39 Nordeste 0 -- -- 79
2019-12-05 11:00:00 7.2 16 Nordeste 30 Nordeste 0 -- -- 83
2019-12-05 10:00:00 7.1 14 Nordeste 28 Nordeste 0 -- -- 84
2019-12-05 09:00:00 6.9 11 Nordeste 24 Nordeste 0 -- -- 84
2019-12-05 08:00:00 7 10 Nordeste 23 Nordeste 0 -- -- 84
2019-12-05 07:00:00 6.8 9 Nordeste 21 Nordeste 0 -- -- 85
2019-12-05 06:00:00 6.9 10 Nordeste 22 Este 0 -- -- 85
2019-12-05 05:00:00 6.9 8 Nordeste 24 Nordeste 0 -- -- 85
2019-12-05 04:00:00 7.1 5 Nordeste 28 Nordeste 0 -- -- 84
2019-12-05 03:00:00 6.9 12 Nordeste 24 Este 0 -- -- 86
2019-12-05 02:00:00 5.5 4 Este 19 Nordeste 0 -- -- 88
2019-12-05 01:00:00 5.8 6 Nordeste 20 Norte 0 -- -- 86
2019-12-05 00:00:00 4.9 4 Nordeste 14 Nordeste 0 -- -- 86
2019-12-04 23:00:00 4.3 3 Oeste 14 Este 0 -- -- 85
2019-12-04 22:00:00 4.6 5 Nordeste 31 Nordeste 0 -- -- 84
2019-12-04 21:00:00 5.2 6 Nordeste 19 Nordeste 0 -- -- 71
2019-12-04 20:00:00 5.4 5 Nordeste 20 Nordeste 0 -- -- 70
2019-12-04 19:00:00 6.7 8 Nordeste 20 Este 0 -- -- 69
2019-12-04 18:00:00 8.1 11 Nordeste 24 Nordeste 0 -- -- 70
2019-12-04 17:00:00 9.5 6 Nordeste 16 Nordeste 0 -- -- 73
2019-12-04 16:00:00 9.4 5 Norte 20 Noroeste 0 -- -- 80
2019-12-04 15:00:00 9 5 Noroeste 9 Noroeste 0 -- -- 81
2019-12-04 14:00:00 7.4 3 Noroeste 12 Noroeste 0 -- -- 85
2019-12-04 13:00:00 5.9 7 Noroeste 13 Noroeste 0 -- -- 88
2019-12-04 12:00:00 3.2 8 Noroeste 11 Noroeste 0 -- -- 96
2019-12-04 11:00:00 0.6 0 Calma 5 Noroeste 0 -- -- 99
2019-12-04 10:00:00 -0.7 0 Calma 6 Noroeste 0 -- -- 97
2019-12-04 09:00:00 -1.2 4 Noroeste 9 Norte 0 -- -- 96
2019-12-04 08:00:00 -1.3 4 Oeste 8 Noroeste 0 -- -- 94
2019-12-04 07:00:00 -0.7 4 Noroeste 8 Noroeste 0 -- -- 93
2019-12-04 06:00:00 -1.5 0 Calma 6 Noroeste 0 -- -- 95
2019-12-04 05:00:00 -1.4 3 Noroeste 9 Noroeste 0 -- -- 96
2019-12-04 04:00:00 -1.5 4 Noroeste 8 Noroeste 0 -- -- 96
2019-12-04 03:00:00 -1.4 3 Oeste 8 Sudoeste 0 -- -- 96
2019-12-04 02:00:00 -1.4 3 Sudoeste 6 Oeste 0 -- -- 95
2019-12-04 01:00:00 -1.2 0 Calma 5 Oeste 0 -- -- 94
2019-12-04 00:00:00 -0.8 0 Calma 13 Sudeste 0 -- -- 95
2019-12-03 23:00:00 -0.9 5 Sudoeste 8 Sudoeste 0 -- -- 94
2019-12-03 22:00:00 -0.9 5 Oeste 6 Oeste 0 -- -- 91
2019-12-03 21:00:00 0.1 3 Este 5 Nordeste 0 -- -- 90
2019-12-03 20:00:00 0.8 0 Calma 8 Nordeste 0 -- -- 87
2019-12-03 19:00:00 2.2 3 Noroeste 19 Este 0 -- -- 81
2019-12-03 18:00:00 3.5 8 Nordeste 15 Este 0 -- -- 78
2019-12-03 17:00:00 4.6 8 Este 17 Nordeste 0 -- -- 75
2019-12-03 16:00:00 5.2 8 Nordeste 23 Nordeste 0 -- -- 76
2019-12-03 15:00:00 5.2 9 Nordeste 25 Nordeste 0 -- -- 73
2019-12-03 14:00:00 5.4 11 Este 30 Este 0 -- -- 75
2019-12-03 13:00:00 4.7 14 Nordeste 34 Este 0 -- -- 76
2019-12-03 12:00:00 4.3 17 Este 40 Este 0 -- -- 77
2019-12-03 11:00:00 3.7 13 Nordeste 27 Nordeste 0 -- -- 82
2019-12-03 10:00:00 3.3 9 Nordeste 20 Este 0 -- -- 85
2019-12-03 09:00:00 2.6 4 Nordeste 20 Nordeste 0 -- -- 88
2019-12-03 08:00:00 2.7 6 Nordeste 18 Nordeste 0 -- -- 86
2019-12-03 07:00:00 2.5 4 Nordeste 21 Nordeste 0 -- -- 86
2019-12-03 06:00:00 2.8 6 Nordeste 18 Este 0 -- -- 85
2019-12-03 05:00:00 2.8 4 Nordeste 14 Este 0 -- -- 84
2019-12-03 04:00:00 2.2 4 Nordeste 18 Nordeste 0 -- -- 83
2019-12-03 03:00:00 2.5 13 Nordeste 24 Nordeste 0 -- -- 78
2019-12-03 02:00:00 2.5 12 Nordeste 23 Este 0 -- -- 81
2019-12-03 01:00:00 2.6 10 Nordeste 18 Nordeste 0 -- -- 84
2019-12-03 00:00:00 2.7 5 Este 24 Este 0 -- -- 83
2019-12-02 23:00:00 2.9 8 Este 27 Nordeste 0 -- -- 80
2019-12-02 22:00:00 3 10 Nordeste 30 Este 0 -- -- 81
2019-12-02 21:00:00 3.3 9 Nordeste 30 Nordeste 0 -- -- 78
2019-12-02 20:00:00 3.8 7 Nordeste 29 Nordeste 0 -- -- 82
2019-12-02 19:00:00 4.6 14 Nordeste 27 Nordeste 0 -- -- 80
2019-12-02 18:00:00 5.1 12 Nordeste 35 Nordeste 0 -- -- 84
2019-12-02 17:00:00 6.2 11 Nordeste 39 Nordeste 0 -- -- 84
2019-12-02 16:00:00 7.4 12 Nordeste 35 Nordeste 0 -- -- 81
2019-12-02 15:00:00 7.8 15 Nordeste 37 Este 0 -- -- 78
2019-12-02 14:00:00 8 19 Nordeste 39 Este 0 -- -- 74
2019-12-02 13:00:00 7.7 18 Nordeste 35 Nordeste 0 -- -- 79
2019-12-02 12:00:00 7.2 11 Nordeste 31 Este 0 -- -- 83
2019-12-02 11:00:00 7.1 9 Nordeste 26 Nordeste 0 -- -- 84
2019-12-02 10:00:00 6.4 8 Nordeste 17 Nordeste 0 -- -- 89
2019-12-02 09:00:00 5 6 Nordeste 17 Nordeste 0 -- -- 93
2019-12-02 08:00:00 4.6 7 Nordeste 19 Nordeste 0 -- -- 94
2019-12-02 07:00:00 4.6 7 Nordeste 21 Este 0 -- -- 93
2019-12-02 06:00:00 4.4 9 Nordeste 28 Nordeste 0 -- -- 91
2019-12-02 05:00:00 3.7 7 Este 17 Nordeste 0 -- -- 91
2019-12-02 04:00:00 3.5 5 Nordeste 15 Norte 0 -- -- 91
2019-12-02 03:00:00 3.7 6 Nordeste 21 Nordeste 0 -- -- 90
2019-12-02 02:00:00 4.1 9 Nordeste 22 Nordeste 0 -- -- 90
2019-12-02 01:00:00 4.7 8 Nordeste 21 Nordeste 0 -- -- 89
2019-12-02 00:00:00 5.5 12 Nordeste 26 Nordeste 0 -- -- 88
2019-12-01 23:00:00 5.6 9 Nordeste 22 Nordeste 0 -- -- 88
2019-12-01 22:00:00 5.6 10 Nordeste 23 Nordeste 0 -- -- 90
2019-12-01 21:00:00 5.6 7 Nordeste 19 Nordeste 0 -- -- 91
2019-12-01 20:00:00 6.1 7 Nordeste 19 Nordeste 0 -- -- 91
2019-12-01 19:00:00 6.2 4 Nordeste 13 Nordeste 0.2 -- -- 94
2019-12-01 18:00:00 6.7 5 Norte 14 Norte 0 -- -- 94
2019-12-01 17:00:00 7 3 Nordeste 7 Nordeste 0 -- -- 95
2019-12-01 16:00:00 6.8 0 Calma 4 Este 0 -- -- 95
2019-12-01 15:00:00 6.7 3 Nordeste 9 Sudeste 0.2 -- -- 92
2019-12-01 14:00:00 6.8 4 Sudeste 14 Sudeste 0.2 -- -- 96
2019-12-01 13:00:00 6.7 9 Sudeste 15 Sudeste 0.6 -- -- 98
2019-12-01 12:00:00 6.4 7 Sudeste 15 Sudeste 0.6 -- -- 99
2019-12-01 11:00:00 6.1 8 Sudeste 16 Sudeste 1.2 -- -- 99
2019-12-01 10:00:00 5.7 5 Sudeste 13 Sudeste 0.4 -- -- 98
2019-12-01 09:00:00 5.3 6 Sudeste 13 Sudeste 0.4 -- -- 98
2019-12-01 08:00:00 5.3 6 Sudeste 14 Sudeste 0.2 -- -- 98
2019-12-01 07:00:00 5.4 7 Sudeste 17 Sudeste 0.6 -- -- 97
2019-12-01 06:00:00 5.6 4 Sur 20 Sudoeste 1.2 -- -- 96
2019-12-01 05:00:00 5.6 9 Sudoeste 17 Sudoeste 0 -- -- 96
2019-12-01 04:00:00 5.6 6 Sur 19 Sur 0 -- -- 96
2019-12-01 03:00:00 5.3 5 Sur 23 Sudoeste 0 -- -- 96
2019-12-01 02:00:00 5.3 12 Sudoeste 24 Sudoeste 0 -- -- 95
2019-12-01 01:00:00 5.2 12 Sudoeste 24 Sudoeste 0.2 -- -- 93
2019-12-01 00:00:00 4.8 12 Sudoeste 24 Sudoeste 0 -- -- 95
2019-11-30 23:00:00 5 13 Sudoeste 21 Sudoeste 0 -- -- 95
2019-11-30 22:00:00 5 9 Sudoeste 15 Sur 0 -- -- 94
2019-11-30 21:00:00 5.7 6 Sudeste 31 Oeste 0 -- -- 93
2019-11-30 20:00:00 7.1 21 Oeste 31 Oeste 0 -- -- 90
2019-11-30 19:00:00 6.9 14 Oeste 39 Oeste 0 -- -- 90
2019-11-30 18:00:00 7.8 18 Oeste 33 Sudoeste 0 -- -- 88
2019-11-30 17:00:00 8.5 9 Oeste 24 Noroeste 0.6 -- -- 94
2019-11-30 16:00:00 9 12 Noroeste 42 Oeste 1.6 -- -- 95
2019-11-30 15:00:00 10.3 29 Oeste 50 Oeste 0.4 -- -- 91
2019-11-30 14:00:00 10.9 32 Oeste 49 Oeste 2.4 -- -- 91
2019-11-30 13:00:00 13.7 23 Sudoeste 41 Sudoeste 0 -- -- 88
2019-11-30 12:00:00 12.9 22 Sudoeste 41 Sudoeste 0 -- -- 90
2019-11-30 11:00:00 12.7 21 Sudoeste 39 Sudoeste 0 -- -- 91
2019-11-30 10:00:00 11.9 20 Sudoeste 35 Sur 0 -- -- 93
2019-11-30 09:00:00 11.3 18 Sudoeste 33 Sur 0.2 -- -- 96
2019-11-30 08:00:00 11.1 16 Sudoeste 33 Sur 0.2 -- -- 95
2019-11-30 07:00:00 11.5 20 Sudoeste 35 Sudoeste 0 -- -- 92
2019-11-30 06:00:00 11.4 14 Sudoeste 29 Sudoeste 0 -- -- 93
2019-11-30 05:00:00 11.8 13 Sudoeste 32 Sudoeste 0 -- -- 94
2019-11-30 04:00:00 11.7 19 Sudoeste 36 Sudoeste 0 -- -- 95
2019-11-30 03:00:00 11.5 15 Sudoeste 25 Sudoeste 0.4 -- -- 99
2019-11-30 02:00:00 11 5 Sur 10 Sudoeste 0.4 -- -- 99
2019-11-30 01:00:00 10.6 5 Sudoeste 13 Sur 1.4 -- -- 99
2019-11-30 00:00:00 9.7 6 Sudeste 12 Sudeste 1 -- -- 98
2019-11-29 23:00:00 9.3 5 Sudeste 10 Sudeste 0.2 -- -- 98
2019-11-29 22:00:00 8.3 3 Sudeste 7 Sudeste 0 -- -- 97
2019-11-29 21:00:00 7.3 2 Sudeste 5 Oeste 0 -- -- 95
2019-11-29 20:00:00 8.1 2 Sudeste 6 Oeste 0 -- -- 92
2019-11-29 19:00:00 9.7 4 Sudoeste 7 Sudoeste 0 -- -- 89
2019-11-29 18:00:00 11.6 2 Sudeste 8 Oeste 0 -- -- 85
2019-11-29 17:00:00 12.5 4 Oeste 11 Oeste 0 -- -- 85
2019-11-29 16:00:00 13.3 6 Noroeste 15 Oeste 0 -- -- 80
2019-11-29 15:00:00 14.1 9 Oeste 17 Oeste 0 -- -- 78
2019-11-29 14:00:00 13.5 6 Oeste 13 Noroeste 0 -- -- 79
2019-11-29 13:00:00 12.3 8 Oeste 13 Oeste 0 -- -- 81
2019-11-29 12:00:00 12.3 4 Sudoeste 8 Sudoeste 0 -- -- 86
2019-11-29 11:00:00 11.9 4 Este 9 Este 0 -- -- 97
2019-11-29 10:00:00 10.2 4 Noroeste 17 Oeste 0 -- -- 99
2019-11-29 09:00:00 9.6 10 Oeste 17 Oeste 0 -- -- 99
2019-11-29 08:00:00 9 4 Noroeste 8 Norte 0 -- -- 98
2019-11-29 07:00:00 9.4 0 Calma 13 Oeste 0 -- -- 96
2019-11-29 06:00:00 10.4 8 Oeste 17 Sudoeste 0 -- -- 97
2019-11-29 05:00:00 10.7 12 Sudoeste 31 Oeste 0 -- -- 98
2019-11-29 04:00:00 10.9 18 Oeste 27 Oeste 0 -- -- 98
2019-11-29 03:00:00 11 18 Oeste 30 Oeste 0 -- -- 97
2019-11-29 02:00:00 10.8 20 Oeste 43 Oeste 0 -- -- 97
2019-11-29 01:00:00 10.8 26 Oeste 47 Sudoeste 0 -- -- 96
2019-11-29 00:00:00 10.8 27 Oeste 42 Oeste 0 -- -- 94
2019-11-28 23:00:00 10.8 22 Sudoeste 40 Sudoeste 0 -- -- 95
2019-11-28 22:00:00 10.3 19 Sudoeste 35 Oeste 0.8 -- -- 96
2019-11-28 21:00:00 10.3 17 Sudoeste 36 Sudoeste 0.2 -- -- 94
2019-11-28 20:00:00 10.4 17 Sudoeste 32 Sudoeste 0.2 -- -- 93
2019-11-28 19:00:00 10.6 12 Sudoeste 23 Sudoeste 0.8 -- -- 93
2019-11-28 18:00:00 11.1 14 Sudoeste 28 Sudoeste 0.4 -- -- 90
2019-11-28 17:00:00 12 18 Sudoeste 37 Sudoeste 0 -- -- 81
2019-11-28 16:00:00 12.2 21 Sudoeste 41 Sudoeste 0 -- -- 79
2019-11-28 15:00:00 11.7 16 Sudoeste 36 Sudoeste 0 -- -- 84
2019-11-28 14:00:00 11.5 15 Sudoeste 39 Sudoeste 0 -- -- 85
2019-11-28 13:00:00 11.9 19 Sudoeste 35 Sudoeste 0 -- -- 85
2019-11-28 12:00:00 11.9 21 Sudoeste 37 Sudoeste 0 -- -- 85
2019-11-28 11:00:00 10.9 18 Sudoeste 39 Sudoeste 0 -- -- 88
2019-11-28 10:00:00 10.6 19 Sudoeste 38 Sudoeste 0 -- -- 90
2019-11-28 09:00:00 9.8 15 Sudoeste 40 Sudoeste 0 -- -- 92
2019-11-28 08:00:00 9.9 26 Sudoeste 46 Sudoeste 0 -- -- 92
2019-11-28 07:00:00 9.3 19 Sudoeste 41 Sudoeste 0 -- -- 93
2019-11-28 06:00:00 8.9 19 Sudoeste 33 Sudoeste 0 -- -- 94
2019-11-28 05:00:00 9.3 15 Sudoeste 40 Sudoeste 0 -- -- 92
2019-11-28 04:00:00 9 22 Sudoeste 41 Sudoeste 0 -- -- 90
2019-11-28 03:00:00 9 22 Sudoeste 43 Sudoeste 0 -- -- 90
2019-11-28 02:00:00 9.2 22 Sudoeste 44 Oeste 0 -- -- 89
2019-11-28 01:00:00 8.8 24 Sudoeste 46 Sudoeste 0 -- -- 90
2019-11-28 00:00:00 8.8 25 Oeste 46 Oeste 0 -- -- 89
2019-11-27 23:00:00 9.1 22 Oeste 44 Oeste 0 -- -- 89
2019-11-27 22:00:00 8.6 16 Sudoeste 33 Sudoeste 0 -- -- 90
2019-11-27 21:00:00 9.2 22 Sudoeste 38 Oeste 0 -- -- 86
2019-11-27 20:00:00 9.4 26 Sudoeste 45 Sudoeste 0 -- -- 84
2019-11-27 19:00:00 9.7 23 Oeste 54 Oeste 0.2 -- -- 86
2019-11-27 18:00:00 9.8 24 Oeste 36 Oeste 0 -- -- 88
2019-11-27 17:00:00 9.8 20 Sudoeste 43 Sudoeste 0 -- -- 88
2019-11-27 16:00:00 9.9 21 Sudoeste 41 Oeste 0 -- -- 86
2019-11-27 15:00:00 10.3 19 Sudoeste 41 Sudoeste 0 -- -- 83
2019-11-27 14:00:00 10.4 24 Sudoeste 40 Sudoeste 0 -- -- 82
2019-11-27 06:00:00 7.3 17 Sudoeste 41 Sudoeste 0 -- -- 87
2019-11-27 05:00:00 7.3 23 Sudoeste 43 Sudoeste 0 -- -- 86
2019-11-27 04:00:00 7.4 20 Sudoeste 40 Sudoeste 0 -- -- 87
2019-11-27 03:00:00 8 18 Sudoeste 41 Oeste 0 -- -- 88
2019-11-27 02:00:00 8.3 29 Oeste 48 Oeste 0 -- -- 88
2019-11-27 01:00:00 8.7 25 Oeste 45 Oeste 0 -- -- 87
2019-11-27 00:00:00 9.2 25 Oeste 50 Sudoeste 0 -- -- 88
2019-11-26 23:00:00 9.9 26 Oeste 50 Oeste 0 -- -- 89
2019-11-26 22:00:00 10.1 28 Oeste 58 Oeste 0.6 -- -- 91
2019-11-26 21:00:00 11.9 32 Sudoeste 59 Sudoeste 0 -- -- 83
2019-11-26 20:00:00 12.1 23 Sudoeste 46 Oeste 0 -- -- 80
2019-11-26 19:00:00 12.1 15 Sudoeste 36 Sudoeste 0 -- -- 82
2019-11-26 18:00:00 13.1 23 Sudoeste 47 Sur 0.2 -- -- 88
2019-11-26 17:00:00 13.4 20 Sudoeste 45 Sur 0.2 -- -- 90
2019-11-26 16:00:00 14.5 20 Sudoeste 46 Sudoeste 0 -- -- 85
2019-11-26 15:00:00 15.3 23 Sudoeste 44 Sur 0 -- -- 81
2019-11-26 14:00:00 15.2 22 Sudoeste 39 Sudoeste 0 -- -- 82
2019-11-26 13:00:00 14.3 23 Sudoeste 42 Sur 0 -- -- 86
2019-11-26 12:00:00 14.1 21 Sudoeste 42 Sudoeste 0 -- -- 85
2019-11-26 11:00:00 12.8 20 Sudoeste 36 Sudoeste 0 -- -- 90
2019-11-26 10:00:00 10.7 10 Sur 21 Sur 0.2 -- -- 98
2019-11-26 09:00:00 10 9 Sur 20 Sur 0.2 -- -- 97
2019-11-26 08:00:00 9.6 8 Sur 21 Sur 0 -- -- 96
2019-11-26 07:00:00 9.7 8 Sur 21 Sur 0 -- -- 96
2019-11-26 06:00:00 9.5 6 Sur 21 Sur 0.2 -- -- 96
2019-11-26 05:00:00 9.5 10 Sudoeste 20 Sudoeste 0 -- -- 95
2019-11-26 04:00:00 9.4 7 Sur 18 Sudoeste 0 -- -- 94
2019-11-26 03:00:00 9.1 5 Sur 15 Sudoeste 0 -- -- 94
2019-11-26 02:00:00 9.3 6 Sur 13 Sudoeste 0 -- -- 96
2019-11-26 01:00:00 8.2 4 Sur 10 Sur 0 -- -- 96
2019-11-26 00:00:00 7.5 7 Sudeste 15 Sur 0 -- -- 95
2019-11-25 23:00:00 7.5 5 Sur 13 Sur 0 -- -- 92
2019-11-25 22:00:00 8 5 Sur 14 Sudoeste 0 -- -- 89
2019-11-25 21:00:00 8.7 4 Sur 14 Sudoeste 0 -- -- 87
2019-11-25 20:00:00 9.7 6 Sudoeste 22 Sudoeste 0 -- -- 86
2019-11-25 19:00:00 10 12 Sudoeste 21 Sudoeste 0 -- -- 86
2019-11-25 18:00:00 10.9 9 Sudoeste 28 Oeste 0 -- -- 83
2019-11-25 17:00:00 12 17 Oeste 27 Oeste 0 -- -- 78
2019-11-25 16:00:00 12.6 14 Oeste 36 Oeste 0 -- -- 77
2019-11-25 15:00:00 13.3 20 Oeste 32 Oeste 0 -- -- 77
2019-11-25 14:00:00 13.5 22 Oeste 35 Oeste 0 -- -- 74
2019-11-25 13:00:00 13.4 19 Oeste 40 Oeste 0 -- -- 78
2019-11-25 12:00:00 13.1 25 Oeste 42 Oeste 0 -- -- 79
2019-11-25 11:00:00 12.4 24 Oeste 43 Oeste 0 -- -- 84
2019-11-25 10:00:00 11.3 14 Sudoeste 26 Sudoeste 0 -- -- 90
2019-11-25 09:00:00 9.3 12 Sudoeste 24 Sudoeste 0 -- -- 96
2019-11-25 08:00:00 9.1 13 Sudoeste 29 Sudoeste 0 -- -- 94
2019-11-25 07:00:00 9.2 13 Sudoeste 29 Sudoeste 0 -- -- 93
2019-11-25 06:00:00 9.6 18 Sudoeste 33 Sudoeste 0 -- -- 93
2019-11-25 05:00:00 9.9 14 Sudoeste 33 Sudoeste 0 -- -- 93
2019-11-25 04:00:00 9.6 16 Sudoeste 30 Sudoeste 0 -- -- 94
2019-11-25 03:00:00 9.2 10 Sudoeste 27 Sudoeste 0 -- -- 95
2019-11-25 02:00:00 9.2 16 Sudoeste 35 Sudoeste 0 -- -- 96
2019-11-25 01:00:00 8.8 13 Sudoeste 27 Sudoeste 0 -- -- 96
2019-11-25 00:00:00 7.9 12 Sudoeste 27 Sudoeste 0.2 -- -- 96
2019-11-24 23:00:00 8 17 Sudoeste 29 Sur 0.2 -- -- 93
2019-11-24 22:00:00 7.6 12 Sur 26 Sur 0 -- -- 92
2019-11-24 21:00:00 7.8 13 Sudoeste 27 Sudoeste 0 -- -- 92
2019-11-24 20:00:00 7.6 6 Sur 15 Sur 0 -- -- 93
2019-11-24 19:00:00 7.7 9 Sur 24 Sudoeste 0 -- -- 89
2019-11-24 18:00:00 8.1 13 Sudoeste 21 Sur 0 -- -- 85
2019-11-24 17:00:00 8.4 10 Sudoeste 25 Sudoeste 0 -- -- 81
2019-11-24 16:00:00 8.8 12 Sudoeste 30 Sudoeste 0 -- -- 79
2019-11-24 15:00:00 8.8 15 Sudoeste 26 Sudoeste 0 -- -- 79
2019-11-24 14:00:00 8.1 13 Sudoeste 27 Sudoeste 0 -- -- 79
2019-11-24 13:00:00 8.2 14 Sudoeste 26 Sudoeste 0 -- -- 79
2019-11-24 12:00:00 8 15 Sudoeste 26 Sudoeste 0 -- -- 80
2019-11-24 11:00:00 6.2 13 Sudoeste 23 Sudoeste 0 -- -- 85
2019-11-24 10:00:00 5.1 12 Sudoeste 22 Sudoeste 0 -- -- 86
2019-11-24 09:00:00 3.6 6 Sudoeste 32 Oeste 0 -- -- 87
2019-11-24 08:00:00 3.9 19 Oeste 36 Oeste 0 -- -- 87
2019-11-24 07:00:00 4 21 Oeste 38 Oeste 0 -- -- 89
2019-11-24 06:00:00 3.5 22 Oeste 35 Oeste 0 -- -- 93
2019-11-24 05:00:00 3.4 8 Oeste 30 Oeste 0 -- -- 91
2019-11-24 04:00:00 4 20 Oeste 40 Oeste 0 -- -- 90
2019-11-24 03:00:00 4 28 Oeste 40 Oeste 0 -- -- 91
2019-11-24 02:00:00 4.7 21 Oeste 38 Oeste 0 -- -- 84
2019-11-24 01:00:00 4.8 24 Oeste 42 Oeste 0 -- -- 81
2019-11-24 00:00:00 5.6 25 Oeste 43 Oeste 0 -- -- 79
2019-11-23 23:00:00 5.7 25 Oeste 40 Oeste 0 -- -- 80
2019-11-23 22:00:00 5.6 23 Oeste 42 Oeste 0 -- -- 80
2019-11-23 21:00:00 6 25 Oeste 48 Oeste 0 -- -- 80
2019-11-23 20:00:00 6.1 25 Oeste 40 Oeste 0 -- -- 79
2019-11-23 19:00:00 6.7 23 Oeste 40 Oeste 0 -- -- 76
2019-11-23 18:00:00 7.6 24 Oeste 47 Oeste 0 -- -- 73
2019-11-23 17:00:00 9.2 30 Noroeste 44 Oeste 0 -- -- 67
2019-11-23 16:00:00 10.1 25 Oeste 51 Noroeste 0 -- -- 63
2019-11-23 15:00:00 10.5 32 Oeste 64 Oeste 0 -- -- 62
2019-11-23 14:00:00 10.3 29 Noroeste 44 Oeste 0 -- -- 63
2019-11-23 13:00:00 9.3 27 Noroeste 47 Noroeste 0 -- -- 68
2019-11-23 12:00:00 8.3 30 Oeste 50 Oeste 0 -- -- 75
2019-11-23 11:00:00 6.2 29 Oeste 48 Oeste 0 -- -- 80
2019-11-23 10:00:00 5.5 26 Oeste 50 Oeste 0 -- -- 80
2019-11-23 09:00:00 4.3 28 Oeste 53 Oeste 0 -- -- 82
2019-11-23 08:00:00 4.4 36 Oeste 59 Oeste 0 -- -- 81
2019-11-23 07:00:00 4.7 26 Oeste 57 Oeste 0 -- -- 84
2019-11-23 06:00:00 5 38 Oeste 61 Oeste 0 -- -- 82
2019-11-23 05:00:00 4.8 31 Oeste 60 Sudoeste 0 -- -- 89
2019-11-23 04:00:00 5.3 37 Oeste 58 Oeste 0 -- -- 87
2019-11-23 03:00:00 5.6 34 Oeste 61 Sudoeste 0 -- -- 85
2019-11-23 02:00:00 6.2 35 Oeste 60 Oeste 0 -- -- 85
2019-11-23 01:00:00 6.5 31 Oeste 58 Oeste 0 -- -- 87
2019-11-23 00:00:00 7.2 26 Oeste 50 Sudoeste 0 -- -- 88
2019-11-22 23:00:00 7.9 23 Sudoeste 40 Sudoeste 0.2 -- -- 90
2019-11-22 22:00:00 7.8 20 Sudoeste 45 Sudoeste 0 -- -- 88
2019-11-22 21:00:00 8 19 Sudoeste 46 Sudoeste 0 -- -- 89
2019-11-22 20:00:00 7.8 21 Sudoeste 39 Sudoeste 0 -- -- 87
2019-11-22 19:00:00 7.9 22 Sudoeste 40 Sudoeste 0 -- -- 86
2019-11-22 18:00:00 8.8 24 Oeste 42 Oeste 0.6 -- -- 87
2019-11-22 17:00:00 11 23 Sudoeste 52 Sudoeste 0 -- -- 83
2019-11-22 16:00:00 11.9 24 Sudoeste 45 Sudoeste 0.6 -- -- 88
2019-11-22 15:00:00 12.2 24 Sudoeste 48 Sudoeste 0 -- -- 87
2019-11-22 14:00:00 10.2 12 Sur 39 Sur 0.8 -- -- 96
2019-11-22 13:00:00 9.4 14 Sur 35 Sur 1.2 -- -- 93
2019-11-22 12:00:00 9.2 15 Sudeste 37 Sudeste 0 -- -- 91
2019-11-22 11:00:00 8.1 15 Sudeste 33 Sudeste 0 -- -- 95
2019-11-22 10:00:00 7.2 18 Sudeste 34 Sudeste 0.2 -- -- 97
2019-11-22 09:00:00 6.6 15 Sudeste 33 Sudeste 1 -- -- 97
2019-11-22 08:00:00 6.5 12 Sur 33 Sudeste 2 -- -- 97
2019-11-22 07:00:00 6.2 9 Sur 19 Sur 1.4 -- -- 96
2019-11-22 06:00:00 6 7 Sudeste 17 Sudeste 0.2 -- -- 96
2019-11-22 05:00:00 5.8 5 Sur 16 Sur 0 -- -- 95
2019-11-22 04:00:00 5.8 6 Sur 16 Sur 0 -- -- 96
2019-11-22 03:00:00 5.8 7 Sur 18 Sudoeste 0.2 -- -- 95
2019-11-22 02:00:00 6.1 7 Sur 18 Sur 0.2 -- -- 95
2019-11-22 01:00:00 6 7 Sur 16 Sur 0 -- -- 93
2019-11-22 00:00:00 4.9 2 Sudeste 9 Sudoeste 0 -- -- 91
2019-11-21 23:00:00 5.1 2 Sudeste 12 Sudoeste 0 -- -- 90
2019-11-21 22:00:00 5.2 9 Sudoeste 15 Sudoeste 0 -- -- 86
2019-11-21 21:00:00 4.4 9 Sudoeste 14 Sudoeste 0 -- -- 91
2019-11-21 20:00:00 4.9 4 Sudoeste 12 Sudoeste 0 -- -- 85
2019-11-21 19:00:00 5.6 8 Sudoeste 12 Sudoeste 0 -- -- 85
2019-11-21 18:00:00 7.3 4 Sudoeste 20 Oeste 0 -- -- 77
2019-11-21 17:00:00 8.8 8 Oeste 23 Oeste 0 -- -- 72
2019-11-21 16:00:00 10.7 12 Oeste 31 Oeste 0 -- -- 65
2019-11-21 15:00:00 10.4 16 Oeste 31 Noroeste 0 -- -- 62
2019-11-21 14:00:00 10 17 Oeste 33 Oeste 0 -- -- 67
2019-11-21 13:00:00 9.4 17 Sudoeste 27 Oeste 0 -- -- 76
2019-11-21 12:00:00 8 13 Oeste 28 Oeste 0 -- -- 83
2019-11-21 11:00:00 7.1 12 Sudoeste 22 Sudoeste 0 -- -- 93
2019-11-21 10:00:00 6.4 9 Sudoeste 23 Sudoeste 0 -- -- 93
2019-11-21 09:00:00 5.6 12 Sudoeste 23 Sudoeste 0 -- -- 95
2019-11-21 08:00:00 4.9 6 Sudoeste 17 Sudoeste 0 -- -- 94
2019-11-21 07:00:00 5.1 9 Sudoeste 19 Sudoeste 0 -- -- 95
2019-11-21 06:00:00 4.9 7 Sudoeste 18 Sudoeste 0 -- -- 95
2019-11-21 05:00:00 4.8 8 Sudoeste 19 Oeste 0 -- -- 94
2019-11-21 04:00:00 4.9 9 Sudoeste 23 Sudoeste 0 -- -- 94
2019-11-21 03:00:00 5 10 Sudoeste 19 Sudoeste 0 -- -- 94
2019-11-21 02:00:00 5 9 Sudoeste 19 Sudoeste 0 -- -- 94
2019-11-21 01:00:00 5.2 10 Sudoeste 22 Sur 0 -- -- 94
2019-11-21 00:00:00 5.1 9 Sudoeste 22 Sudoeste 0.2 -- -- 94
2019-11-20 23:00:00 5.8 11 Sudoeste 18 Sudoeste 0 -- -- 96
2019-11-20 22:00:00 5.9 7 Sudoeste 16 Sudoeste 0 -- -- 97
2019-11-20 21:00:00 5.8 8 Sur 15 Sudoeste 0 -- -- 97
2019-11-20 20:00:00 5.5 5 Sur 12 Sudoeste 0 -- -- 97
2019-11-20 19:00:00 5.2 0 Calma 10 Sur 0 -- -- 95
2019-11-20 18:00:00 5.6 4 Sur 15 Sudoeste 0.2 -- -- 94
2019-11-20 17:00:00 6.1 9 Sudoeste 20 Sudoeste 0.6 -- -- 93
2019-11-20 16:00:00 6.3 8 Sudoeste 26 Sudoeste 1.2 -- -- 93
2019-11-20 15:00:00 6.5 9 Sudoeste 22 Sudoeste 0.6 -- -- 92
2019-11-20 14:00:00 6.6 5 Sur 19 Sudoeste 0.2 -- -- 94
2019-11-20 13:00:00 6.7 8 Sur 23 Sur 0.2 -- -- 94
2019-11-20 12:00:00 6.1 9 Sur 18 Sur 0.2 -- -- 96
2019-11-20 11:00:00 4.7 8 Sudeste 16 Sudeste 0.4 -- -- 98
2019-11-20 10:00:00 4.1 13 Sudeste 18 Sudeste 0 -- -- 94
2019-11-20 09:00:00 3.7 9 Sudeste 15 Sur 0.2 -- -- 93
2019-11-20 08:00:00 3.7 6 Sudeste 9 Sur 0 -- -- 93
2019-11-20 07:00:00 3.6 3 Sudeste 7 Sur 0 -- -- 93
2019-11-20 06:00:00 3.7 5 Sudeste 11 Sudeste 0 -- -- 93
2019-11-20 05:00:00 3.7 6 Sudeste 11 Sudeste 0 -- -- 93
2019-11-20 04:00:00 3.6 2 Sudeste 13 Sudeste 0 -- -- 91
2019-11-20 03:00:00 3.5 3 Sudoeste 6 Sudoeste -- -- -- 92
2019-11-20 02:00:00 3.8 3 Sudeste 9 Sudeste 0 -- -- 92
2019-11-20 01:00:00 3.9 5 Sudeste 12 Sudeste 0 -- -- 92
2019-11-20 00:00:00 3.4 3 Sur 6 Sudeste 0 -- -- 93
2019-11-19 23:00:00 3.2 0 Calma 5 Sudeste 0 -- -- 93
2019-11-19 22:00:00 3 3 Sudeste 5 Sudeste 0 -- -- 94
2019-11-19 21:00:00 2.4 3 Sudeste 4 Sudeste 0 -- -- 93
2019-11-19 20:00:00 2.5 0 Calma 3 Oeste 0 -- -- 90
2019-11-19 19:00:00 3.5 4 Sur 8 Sudoeste 0 -- -- 87
2019-11-19 18:00:00 5.5 0 Calma 8 Oeste 0 -- -- 82
2019-11-19 17:00:00 7.1 6 Oeste 13 Oeste 0 -- -- 79
2019-11-19 16:00:00 7.7 6 Oeste 18 Noroeste 0 -- -- 77
2019-11-19 15:00:00 7.8 12 Noroeste 17 Oeste 0 -- -- 76
2019-11-19 14:00:00 7.8 7 Oeste 12 Oeste 0 -- -- 77
2019-11-19 13:00:00 5.9 2 Nordeste 6 Norte 0 -- -- 87
2019-11-19 12:00:00 3.6 0 Calma 8 Sudeste 0 -- -- 93
2019-11-19 11:00:00 1.4 5 Sudeste 7 Sudeste 0 -- -- 98
2019-11-19 10:00:00 -0.5 0 Calma -- -- 0 -- -- 98
2019-11-19 09:00:00 -2.4 0 Calma -- -- 0 -- -- 98
2019-11-19 08:00:00 -3.5 0 Calma -- -- 0 -- -- 96
2019-11-19 07:00:00 -3.5 0 Calma -- -- 0 -- -- 95
2019-11-19 06:00:00 -3.2 0 Calma -- -- 0 -- -- 95
2019-11-19 05:00:00 -2.8 0 Calma -- -- 0 -- -- 95
2019-11-19 04:00:00 -2.7 0 Calma 6 Sudeste 0 -- -- 95
2019-11-19 03:00:00 -2.3 0 Calma 0 Calma 0 -- -- 94
2019-11-19 02:00:00 -1.9 0 Calma 6 Sudoeste 0 -- -- 94
2019-11-19 01:00:00 -1.5 0 Calma 5 Sudoeste 0 -- -- 93
2019-11-19 00:00:00 -1.1 0 Calma 4 Sudoeste 0 -- -- 91
2019-11-18 23:00:00 -0.2 0 Calma 9 Sudoeste 0 -- -- 90
2019-11-18 22:00:00 0.6 2 Sudoeste 9 Sudoeste 0 -- -- 89
2019-11-18 21:00:00 1.7 0 Calma 5 Sudoeste 0 -- -- 86
2019-11-18 20:00:00 3.2 6 Sudoeste 9 Sudoeste 0 -- -- 84
2019-11-18 19:00:00 5.6 0 Calma 10 Nordeste 0 -- -- 76
2019-11-18 18:00:00 6.8 3 Este 14 Sudeste 0 -- -- 75
2019-11-18 17:00:00 7.8 7 Este 16 Nordeste 0 -- -- 73
2019-11-18 16:00:00 10.5 4 Oeste 10 Oeste 0 -- -- 58
2019-11-18 15:00:00 9.8 5 Noroeste 14 Noroeste 0 -- -- 62
2019-11-18 14:00:00 9 6 Noroeste 14 Noroeste 0 -- -- 67
2019-11-18 13:00:00 7.9 4 Noroeste 9 Noroeste 0 -- -- 74
2019-11-18 12:00:00 5.5 2 Norte 12 Norte 0 -- -- 83
2019-11-18 11:00:00 3.1 0 Calma 6 Norte 0 -- -- 96
2019-11-18 10:00:00 0.3 3 Noroeste 6 Noroeste 0 -- -- 98
2019-11-18 09:00:00 -0.5 0 Calma 6 Oeste 0 -- -- 98
2019-11-18 08:00:00 -1.8 0 Calma 5 Sudoeste 0 -- -- 96
2019-11-18 07:00:00 -2 0 Calma 8 Sudoeste 0 -- -- 96
2019-11-18 06:00:00 -1.8 0 Calma 6 Sudoeste 0 -- -- 94
2019-11-18 05:00:00 -1.1 2 Oeste 6 Oeste 0 -- -- 94
2019-11-18 04:00:00 -0.2 3 Oeste 9 Oeste 0 -- -- 92
2019-11-18 03:00:00 1 4 Noroeste 8 Norte -- -- -- 92
2019-11-18 02:00:00 2.4 6 Noroeste 19 Noroeste 0 -- -- 90
2019-11-18 01:00:00 3 12 Noroeste 23 Oeste 0 -- -- 90
2019-11-18 00:00:00 3.6 11 Noroeste 24 Noroeste 0 -- -- 86
2019-11-17 23:00:00 3.9 15 Noroeste 25 Noroeste 0 -- -- 85
2019-11-17 22:00:00 4.1 17 Noroeste 34 Oeste 0 -- -- 83
2019-11-17 21:00:00 4.6 20 Oeste 36 Noroeste 0 -- -- 82
2019-11-17 20:00:00 5.4 22 Oeste 39 Noroeste 0 -- -- 80
2019-11-17 19:00:00 6.3 20 Noroeste 41 Noroeste 0 -- -- 76
2019-11-17 18:00:00 8.1 22 Noroeste 34 Noroeste 0 -- -- 73
2019-11-17 17:00:00 9.7 21 Noroeste 42 Oeste 0 -- -- 74
2019-11-17 16:00:00 10.3 21 Oeste 40 Oeste 0 -- -- 81
2019-11-17 15:00:00 10.4 23 Oeste 37 Oeste 0 -- -- 85
2019-11-17 14:00:00 9.4 17 Oeste 40 Oeste 0 -- -- 90
2019-11-17 13:00:00 7.6 22 Oeste 44 Oeste 0 -- -- 95
2019-11-17 12:00:00 6.9 26 Oeste 39 Oeste 0.4 -- -- 95
2019-11-17 11:00:00 6 16 Sudoeste 31 Sudoeste 0 -- -- 96
2019-11-17 10:00:00 5.2 14 Sudoeste 27 Sudoeste 0.2 -- -- 96
2019-11-17 09:00:00 4.2 6 Sur 14 Sudoeste 0.4 -- -- 94
2019-11-17 08:00:00 3.9 7 Sur 18 Sudoeste 0.2 -- -- 93
2019-11-17 07:00:00 3.9 3 Sudeste 15 Sudoeste 0 -- -- 90
2019-11-17 06:00:00 4 8 Sudoeste 28 Sudoeste 0 -- -- 89
2019-11-17 05:00:00 3.8 12 Sudoeste 29 Oeste 0 -- -- 90
2019-11-17 04:00:00 3.5 17 Oeste 36 Oeste 0 -- -- 90
2019-11-17 03:00:00 3.7 21 Oeste 37 Oeste 0 -- -- 87
2019-11-17 02:00:00 3.6 15 Oeste 35 Oeste 0 -- -- 84
2019-11-17 01:00:00 3.3 14 Oeste 21 Oeste 0 -- -- 84
2019-11-17 00:00:00 3.3 11 Oeste 19 Oeste 0 -- -- 83
2019-11-16 23:00:00 3.6 12 Oeste 26 Oeste 0 -- -- 79
2019-11-16 22:00:00 3.5 19 Oeste 31 Oeste 0 -- -- 76
2019-11-16 21:00:00 3.5 18 Oeste 29 Oeste 0 -- -- 76
2019-11-16 20:00:00 3.3 9 Oeste 24 Noroeste 0 -- -- 78
2019-11-16 19:00:00 4.5 14 Oeste 33 Noroeste 0 -- -- 77
2019-11-16 18:00:00 5.7 17 Noroeste 27 Oeste 0 -- -- 71
2019-11-16 17:00:00 7.4 18 Oeste 32 Oeste 0 -- -- 63
2019-11-16 16:00:00 8.3 16 Oeste 30 Noroeste 0 -- -- 62
2019-11-16 15:00:00 7.6 20 Oeste 36 Oeste 0 -- -- 64
2019-11-16 14:00:00 7.6 23 Oeste 36 Oeste 0 -- -- 72
2019-11-16 13:00:00 7.2 19 Oeste 32 Oeste 0 -- -- 76
2019-11-16 12:00:00 5.5 20 Oeste 34 Oeste 0 -- -- 80
2019-11-16 11:00:00 3.7 18 Oeste 30 Oeste 0 -- -- 85
2019-11-16 10:00:00 1.2 13 Oeste 24 Oeste 0 -- -- 92
2019-11-16 09:00:00 0 3 Sur 11 Oeste 0 -- -- 97
2019-11-16 08:00:00 -1.5 4 Noroeste 12 Oeste 0 -- -- 97
2019-11-16 07:00:00 -2.6 3 Sur 8 Oeste 0 -- -- 96
2019-11-16 06:00:00 -2.7 0 Calma 6 Oeste 0 -- -- 94
2019-11-16 05:00:00 -2.2 2 Sudoeste 5 Sudoeste 0 -- -- 94
2019-11-16 04:00:00 -1.5 2 Sur 9 Oeste 0 -- -- 93
2019-11-16 03:00:00 -0.4 5 Oeste 11 Oeste 0 -- -- 94
2019-11-16 02:00:00 -0.5 0 Calma 11 Oeste 0 -- -- 92
2019-11-16 01:00:00 0.2 8 Oeste 12 Oeste 0 -- -- 91
2019-11-16 00:00:00 1.2 7 Noroeste 14 Noroeste 0 -- -- 90
2019-11-15 23:00:00 1.8 9 Noroeste 23 Noroeste 0 -- -- 89
2019-11-15 22:00:00 2.4 15 Noroeste 26 Noroeste 0 -- -- 87
2019-11-15 21:00:00 3 18 Noroeste 30 Noroeste 0 -- -- 85
2019-11-15 20:00:00 3.4 20 Noroeste 35 Noroeste 0 -- -- 83
2019-11-15 19:00:00 4 19 Noroeste 37 Noroeste 0 -- -- 81
2019-11-15 18:00:00 5 18 Noroeste 34 Oeste 0 -- -- 76
2019-11-15 17:00:00 6.5 22 Noroeste 41 Noroeste 0 -- -- 68
2019-11-15 16:00:00 7.3 21 Noroeste 39 Oeste 0 -- -- 66
2019-11-15 15:00:00 7.6 26 Noroeste 45 Noroeste 0 -- -- 64
2019-11-15 14:00:00 7.7 25 Noroeste 43 Oeste 0 -- -- 68
2019-11-15 13:00:00 7.3 29 Oeste 46 Noroeste 0 -- -- 69
2019-11-15 12:00:00 6.3 26 Noroeste 42 Oeste 0 -- -- 75
2019-11-15 11:00:00 4.7 22 Oeste 39 Noroeste 0 -- -- 82
2019-11-15 10:00:00 3.3 24 Oeste 53 Oeste 0 -- -- 88
2019-11-15 09:00:00 1.7 26 Oeste 49 Noroeste 0 -- -- 93
2019-11-15 08:00:00 1.7 24 Oeste 42 Noroeste 0 -- -- 94
2019-11-15 07:00:00 2 21 Oeste 39 Oeste 0 -- -- 93
2019-11-15 06:00:00 2 23 Oeste 38 Noroeste 0 -- -- 92
2019-11-15 05:00:00 1.9 22 Oeste 37 Noroeste 0 -- -- 93
2019-11-15 04:00:00 2.1 21 Oeste 38 Oeste 0 -- -- 94
2019-11-15 03:00:00 2.1 21 Oeste 37 Oeste 0 -- -- 95
2019-11-15 02:00:00 1.8 21 Noroeste 37 Oeste 0 -- -- 94
2019-11-15 01:00:00 2.2 22 Oeste 41 Noroeste 0 -- -- 93
2019-11-15 00:00:00 2.8 26 Noroeste 48 Oeste 0 -- -- 91
2019-11-14 23:00:00 2.4 26 Oeste 40 Oeste 0 -- -- 92
2019-11-14 22:00:00 2.6 24 Oeste 37 Oeste 0 -- -- 91
2019-11-14 21:00:00 2.6 23 Oeste 37 Oeste 0 -- -- 91
2019-11-14 20:00:00 2.7 21 Noroeste 33 Noroeste 0.2 -- -- 91
2019-11-14 19:00:00 3 19 Noroeste 42 Noroeste 0 -- -- 93
2019-11-14 18:00:00 3.5 25 Noroeste 42 Oeste 0 -- -- 89
2019-11-14 17:00:00 3.9 26 Oeste 46 Oeste 0.2 -- -- 94
2019-11-14 16:00:00 2.3 11 Oeste 44 Oeste 4.2 -- -- 95
2019-11-14 15:00:00 5.1 32 Oeste 55 Oeste 0.2 -- -- 81
2019-11-14 14:00:00 5.6 27 Sudoeste 60 Sudoeste 0 -- -- 75
2019-11-14 13:00:00 6.8 21 Oeste 38 Sudoeste 0 -- -- 75
2019-11-14 12:00:00 5.5 22 Oeste 39 Oeste 0 -- -- 77
2019-11-14 11:00:00 4.8 25 Oeste 48 Oeste 0 -- -- 81
2019-11-14 10:00:00 3.9 19 Oeste 40 Oeste 0 -- -- 80
2019-11-14 09:00:00 2.7 30 Oeste 47 Oeste 0 -- -- 80
2019-11-14 08:00:00 2.6 31 Oeste 44 Oeste 0 -- -- 84
2019-11-14 07:00:00 3.9 23 Oeste 43 Oeste 0 -- -- 86
2019-11-14 06:00:00 4.8 27 Oeste 44 Oeste 0 -- -- 83
2019-11-14 05:00:00 5.3 28 Oeste 53 Noroeste 1.4 -- -- 88
2019-11-14 04:00:00 6.7 22 Oeste 52 Sudoeste 1 -- -- 89
2019-11-14 03:00:00 7.5 26 Sudoeste 48 Sudoeste 0 -- -- 85
2019-11-14 02:00:00 7.5 25 Sudoeste 53 Sudoeste 0 -- -- 82
2019-11-14 01:00:00 7.2 26 Sudoeste 44 Sudoeste 0 -- -- 83
2019-11-14 00:00:00 7.1 24 Oeste 54 Sudoeste 0 -- -- 80
2019-11-13 23:00:00 7.4 27 Oeste 46 Oeste 0 -- -- 81
2019-11-13 22:00:00 7.8 29 Oeste 42 Oeste 0 -- -- 81
2019-11-13 21:00:00 8.3 21 Oeste 39 Oeste 0 -- -- 81
2019-11-13 20:00:00 9.9 19 Oeste 32 Oeste 0 -- -- 82
2019-11-13 19:00:00 10.1 10 Sudoeste 18 Sudoeste 0 -- -- 80
2019-11-13 18:00:00 10.9 8 Sudoeste 21 Oeste 0 -- -- 76
2019-11-13 17:00:00 12 13 Oeste 22 Oeste 0 -- -- 71
2019-11-13 16:00:00 13.5 11 Oeste 26 Oeste 0 -- -- 64
2019-11-13 15:00:00 13.3 11 Oeste 21 Noroeste 0 -- -- 67
2019-11-13 14:00:00 13.4 11 Oeste 17 Noroeste 0 -- -- 67
2019-11-13 13:00:00 12.3 7 Sudoeste 16 Sudoeste 0 -- -- 68
2019-11-13 12:00:00 10.6 0 Calma 10 Nordeste 0.2 -- -- 74
2019-11-13 11:00:00 9.9 5 Nordeste 14 Norte 0 -- -- 76
2019-11-13 10:00:00 9 6 Nordeste 14 Norte 0 -- -- 81
2019-11-13 09:00:00 8.3 3 Nordeste 12 Nordeste 0 -- -- 85
2019-11-13 08:00:00 8.4 3 Norte 9 Nordeste 0 -- -- 87
2019-11-13 07:00:00 8.9 4 Norte 23 Noroeste 0 -- -- 93
2019-11-13 06:00:00 9.9 15 Noroeste 38 Oeste 0 -- -- 96
2019-11-13 05:00:00 10.5 24 Oeste 44 Oeste 0 -- -- 97
2019-11-13 04:00:00 10.4 25 Oeste 49 Oeste 0 -- -- 97
2019-11-13 03:00:00 10.4 30 Oeste 52 Oeste 1.4 -- -- 96
2019-11-13 02:00:00 10.2 35 Oeste 57 Oeste 1 -- -- 96
2019-11-13 01:00:00 9.9 32 Oeste 58 Sudoeste 0 -- -- 95
2019-11-13 00:00:00 9.6 32 Oeste 50 Sudoeste 0 -- -- 93
2019-11-12 23:00:00 8.9 22 Oeste 43 Oeste 0 -- -- 94
2019-11-12 22:00:00 8.4 20 Sudoeste 37 Sudoeste 0.2 -- -- 94
2019-11-12 21:00:00 8 17 Sudoeste 31 Oeste 0.2 -- -- 93
2019-11-12 20:00:00 7.6 11 Sudoeste 31 Sudoeste 0.4 -- -- 93
2019-11-12 19:00:00 7.6 12 Sudoeste 26 Oeste 1.2 -- -- 91
2019-11-12 18:00:00 8.4 14 Oeste 23 Oeste 0.2 -- -- 84
2019-11-12 17:00:00 9.5 6 Sudoeste 26 Oeste 0 -- -- 71
2019-11-12 16:00:00 9.9 14 Oeste 28 Oeste 0 -- -- 64
2019-11-12 15:00:00 10 17 Oeste 32 Oeste 0 -- -- 65
2019-11-12 14:00:00 10.3 19 Oeste 37 Oeste 0 -- -- 65
2019-11-12 13:00:00 10.1 21 Oeste 33 Oeste 0 -- -- 64
2019-11-12 12:00:00 8.2 15 Oeste 26 Oeste 0 -- -- 73
2019-11-12 11:00:00 7.2 13 Noroeste 26 Noroeste 0 -- -- 76
2019-11-12 10:00:00 6.7 15 Oeste 28 Oeste 0 -- -- 79
2019-11-12 09:00:00 4.7 15 Oeste 27 Oeste 0 -- -- 84
2019-11-12 08:00:00 4.2 17 Oeste 31 Oeste 0 -- -- 85
2019-11-12 07:00:00 4.3 11 Oeste 23 Oeste 0 -- -- 83
2019-11-12 06:00:00 3.9 11 Oeste 19 Oeste 0 -- -- 85
2019-11-12 05:00:00 2.9 3 Sudeste 6 Sudoeste 0 -- -- 91
2019-11-12 04:00:00 3 0 Calma 10 Oeste 0 -- -- 91
2019-11-12 03:00:00 2.7 0 Calma 11 Norte 0 -- -- 94
2019-11-12 02:00:00 2.4 2 Este 5 Sudoeste 0 -- -- 95
2019-11-12 01:00:00 2.1 0 Calma 7 Norte 0 -- -- 96
2019-11-12 00:00:00 1.3 2 Oeste 5 Noroeste 0 -- -- 95
2019-11-11 23:00:00 1.6 3 Sudoeste 9 Sudoeste 0 -- -- 93
2019-11-11 22:00:00 2.2 0 Calma 6 Oeste 0 -- -- 90
2019-11-11 21:00:00 3.4 4 Sudoeste 8 Oeste 0 -- -- 86
2019-11-11 20:00:00 4.6 4 Sudoeste 9 Sudoeste 0 -- -- 88
2019-11-11 19:00:00 5.8 5 Oeste 10 Sudoeste 0 -- -- 86
2019-11-11 18:00:00 8.6 0 Calma 7 Sudeste 0 -- -- 80
2019-11-11 17:00:00 9.7 6 Sudeste 15 Sudeste 0 -- -- 80
2019-11-11 16:00:00 11.3 9 Nordeste 15 Nordeste 0 -- -- 74
2019-11-11 15:00:00 12.2 8 Nordeste 21 Noroeste 0 -- -- 72
2019-11-11 14:00:00 11.3 14 Noroeste 24 Noroeste 0 -- -- 78
2019-11-11 13:00:00 10.5 11 Noroeste 24 Oeste 0 -- -- 84
2019-11-11 12:00:00 9.2 12 Oeste 20 Oeste 0 -- -- 91
2019-11-11 11:00:00 7.2 4 Sudoeste 13 Sur 0 -- -- 95
2019-11-11 10:00:00 6.1 5 Sur 13 Sudoeste 0 -- -- 95
2019-11-11 09:00:00 5 3 Sur 7 Sur 0 -- -- 95
2019-11-11 08:00:00 4.4 5 Sudeste 7 Sudeste 0 -- -- 94
2019-11-11 07:00:00 4.4 4 Sudeste 9 Sur 0 -- -- 93
2019-11-11 06:00:00 4.1 4 Sur 12 Sur 0 -- -- 94
2019-11-11 05:00:00 3.4 3 Sur 7 Sudeste 0 -- -- 93
2019-11-11 04:00:00 3.2 5 Sudeste 8 Sudeste 0 -- -- 92
2019-11-11 03:00:00 3 3 Sudeste 5 Sudeste 0 -- -- 89
2019-11-11 02:00:00 3.5 3 Este 17 Oeste 0 -- -- 89
2019-11-11 01:00:00 3.5 9 Oeste 18 Oeste 0 -- -- 88
2019-11-11 00:00:00 3.9 7 Noroeste 19 Noroeste 0 -- -- 86